sensor_id;sensor_type;location;lat;lon;timestamp;pressure;altitude;pressure_sealevel;temperature;humidity
33697;BME280;20031;43.416;23.232;2022-08-04T00:00:20;99884.22;;;23.39;54.83
33697;BME280;20031;43.416;23.232;2022-08-04T00:03:01;99876.16;;;23.34;54.75
33697;BME280;20031;43.416;23.232;2022-08-04T00:11:18;99880.81;;;23.27;54.74
33697;BME280;20031;43.416;23.232;2022-08-04T00:13:50;99879.41;;;23.19;55.15
33697;BME280;20031;43.416;23.232;2022-08-04T00:16:17;99872.06;;;23.10;55.38
33697;BME280;20031;43.416;23.232;2022-08-04T00:18:54;99877.56;;;23.04;55.86
33697;BME280;20031;43.416;23.232;2022-08-04T00:21:24;99876.97;;;23.02;55.70
33697;BME280;20031;43.416;23.232;2022-08-04T00:23:51;99881.00;;;23.04;56.11
33697;BME280;20031;43.416;23.232;2022-08-04T00:26:19;99875.44;;;23.06;55.41
33697;BME280;20031;43.416;23.232;2022-08-04T00:28:46;99882.88;;;23.04;55.85
33697;BME280;20031;43.416;23.232;2022-08-04T00:31:14;99879.09;;;23.00;55.98
33697;BME280;20031;43.416;23.232;2022-08-04T00:33:43;99881.19;;;22.98;56.00
33697;BME280;20031;43.416;23.232;2022-08-04T00:36:11;99884.31;;;22.95;56.35
33697;BME280;20031;43.416;23.232;2022-08-04T00:38:43;99882.94;;;22.92;56.58
33697;BME280;20031;43.416;23.232;2022-08-04T00:49:12;99898.53;;;22.89;57.82
33697;BME280;20031;43.416;23.232;2022-08-04T00:51:48;99906.75;;;22.87;57.41
33697;BME280;20031;43.416;23.232;2022-08-04T00:54:50;99905.16;;;22.86;57.44
33697;BME280;20031;43.416;23.232;2022-08-04T01:00:02;99911.56;;;22.90;58.02
33697;BME280;20031;43.416;23.232;2022-08-04T01:05:07;99911.44;;;22.97;56.97
33697;BME280;20031;43.416;23.232;2022-08-04T01:11:03;99914.19;;;23.02;57.08
33697;BME280;20031;43.416;23.232;2022-08-04T01:16:25;99919.66;;;22.95;57.23
33697;BME280;20031;43.416;23.232;2022-08-04T01:19:02;99920.13;;;22.92;56.78
33697;BME280;20031;43.416;23.232;2022-08-04T01:27:03;99914.56;;;22.94;55.96
33697;BME280;20031;43.416;23.232;2022-08-04T01:29:52;99925.78;;;22.96;55.60
33697;BME280;20031;43.416;23.232;2022-08-04T01:33:03;99920.13;;;22.92;55.27
33697;BME280;20031;43.416;23.232;2022-08-04T01:38:33;99921.75;;;22.93;55.44
33697;BME280;20031;43.416;23.232;2022-08-04T01:41:03;99912.25;;;22.97;55.54
33697;BME280;20031;43.416;23.232;2022-08-04T01:43:30;99928.78;;;22.99;55.91
33697;BME280;20031;43.416;23.232;2022-08-04T01:45:59;99912.00;;;22.99;56.02
33697;BME280;20031;43.416;23.232;2022-08-04T01:48:26;99912.59;;;23.01;55.55
33697;BME280;20031;43.416;23.232;2022-08-04T01:50:53;99920.47;;;22.96;54.68
33697;BME280;20031;43.416;23.232;2022-08-04T01:53:23;99915.06;;;22.91;55.08
33697;BME280;20031;43.416;23.232;2022-08-04T01:55:55;99919.78;;;22.89;55.19
33697;BME280;20031;43.416;23.232;2022-08-04T01:58:23;99920.75;;;22.83;55.04
33697;BME280;20031;43.416;23.232;2022-08-04T02:03:27;99912.94;;;22.76;55.01
33697;BME280;20031;43.416;23.232;2022-08-04T02:09:08;99910.06;;;22.78;55.15
33697;BME280;20031;43.416;23.232;2022-08-04T02:11:39;99896.75;;;22.78;54.90
33697;BME280;20031;43.416;23.232;2022-08-04T02:14:18;99905.78;;;22.77;55.04
33697;BME280;20031;43.416;23.232;2022-08-04T02:17:12;99901.00;;;22.79;54.66
33697;BME280;20031;43.416;23.232;2022-08-04T02:20:06;99905.03;;;22.81;55.15
33697;BME280;20031;43.416;23.232;2022-08-04T02:22:38;99905.28;;;22.80;54.78
33697;BME280;20031;43.416;23.232;2022-08-04T02:25:09;99902.72;;;22.85;54.58
33697;BME280;20031;43.416;23.232;2022-08-04T02:31:02;99914.56;;;22.94;54.22
33697;BME280;20031;43.416;23.232;2022-08-04T02:33:38;99902.91;;;22.95;54.86
33697;BME280;20031;43.416;23.232;2022-08-04T02:36:08;99906.59;;;22.94;54.91
33697;BME280;20031;43.416;23.232;2022-08-04T02:41:00;99912.84;;;22.71;55.96
33697;BME280;20031;43.416;23.232;2022-08-04T02:43:27;99908.06;;;22.57;57.05
33697;BME280;20031;43.416;23.232;2022-08-04T02:45:55;99910.38;;;22.37;57.23
33697;BME280;20031;43.416;23.232;2022-08-04T02:48:23;99918.38;;;22.26;57.75
33697;BME280;20031;43.416;23.232;2022-08-04T02:50:51;99920.09;;;22.20;58.19
33697;BME280;20031;43.416;23.232;2022-08-04T02:53:21;99914.47;;;22.17;58.37
33697;BME280;20031;43.416;23.232;2022-08-04T02:55:47;99915.72;;;22.14;58.84
33697;BME280;20031;43.416;23.232;2022-08-04T02:58:16;99919.19;;;22.15;58.77
33697;BME280;20031;43.416;23.232;2022-08-04T03:00:44;99912.75;;;22.11;58.89
33697;BME280;20031;43.416;23.232;2022-08-04T03:03:38;99921.59;;;22.16;58.71
33697;BME280;20031;43.416;23.232;2022-08-04T03:17:36;99924.44;;;22.38;58.25
33697;BME280;20031;43.416;23.232;2022-08-04T03:20:49;99923.25;;;22.45;57.81
33697;BME280;20031;43.416;23.232;2022-08-04T03:35:10;99924.84;;;22.90;55.01
33697;BME280;20031;43.416;23.232;2022-08-04T03:48:52;99924.34;;;23.05;54.51
33697;BME280;20031;43.416;23.232;2022-08-04T03:51:42;99933.91;;;23.06;54.26
33697;BME280;20031;43.416;23.232;2022-08-04T04:00:14;99928.38;;;23.23;55.19
33697;BME280;20031;43.416;23.232;2022-08-04T04:16:37;99949.63;;;23.23;58.31
33697;BME280;20031;43.416;23.232;2022-08-04T04:25:03;99966.38;;;23.40;57.61
33697;BME280;20031;43.416;23.232;2022-08-04T04:30:26;99958.97;;;23.42;58.34
33697;BME280;20031;43.416;23.232;2022-08-04T04:38:46;99974.84;;;23.54;58.43
33697;BME280;20031;43.416;23.232;2022-08-04T04:49:51;99986.38;;;23.75;56.73
33697;BME280;20031;43.416;23.232;2022-08-04T04:52:48;100001.34;;;23.81;56.49
33697;BME280;20031;43.416;23.232;2022-08-04T04:55:25;99991.66;;;23.92;55.79
33697;BME280;20031;43.416;23.232;2022-08-04T04:57:52;99998.16;;;24.01;56.16
33697;BME280;20031;43.416;23.232;2022-08-04T05:00:23;100006.78;;;24.08;55.56
33697;BME280;20031;43.416;23.232;2022-08-04T05:14:12;100006.66;;;24.19;53.67
33697;BME280;20031;43.416;23.232;2022-08-04T05:16:44;100010.78;;;24.26;54.10
33697;BME280;20031;43.416;23.232;2022-08-04T05:19:22;100008.31;;;24.41;54.59
33697;BME280;20031;43.416;23.232;2022-08-04T05:21:58;100000.97;;;24.53;54.04
33697;BME280;20031;43.416;23.232;2022-08-04T05:24:26;100012.06;;;24.66;53.38
33697;BME280;20031;43.416;23.232;2022-08-04T05:26:56;100014.53;;;24.73;53.31
33697;BME280;20031;43.416;23.232;2022-08-04T05:31:54;100015.72;;;24.82;53.15
33697;BME280;20031;43.416;23.232;2022-08-04T05:34:24;100023.06;;;24.96;52.68
33697;BME280;20031;43.416;23.232;2022-08-04T05:36:59;100030.69;;;25.09;51.75
33697;BME280;20031;43.416;23.232;2022-08-04T05:39:35;100027.31;;;25.18;52.18
33697;BME280;20031;43.416;23.232;2022-08-04T05:42:03;100019.94;;;25.30;51.33
33697;BME280;20031;43.416;23.232;2022-08-04T05:44:29;100033.88;;;25.37;51.60
33697;BME280;20031;43.416;23.232;2022-08-04T05:46:57;100030.44;;;25.42;51.77
33697;BME280;20031;43.416;23.232;2022-08-04T05:49:25;100034.47;;;25.44;52.01
33697;BME280;20031;43.416;23.232;2022-08-04T05:51:55;100035.56;;;25.48;51.44
33697;BME280;20031;43.416;23.232;2022-08-04T05:54:21;100034.97;;;25.41;51.70
33697;BME280;20031;43.416;23.232;2022-08-04T05:56:49;100034.72;;;25.43;52.13
33697;BME280;20031;43.416;23.232;2022-08-04T05:59:17;100041.97;;;25.47;52.86
33697;BME280;20031;43.416;23.232;2022-08-04T06:01:45;100045.16;;;25.49;52.94
33697;BME280;20031;43.416;23.232;2022-08-04T06:04:12;100047.41;;;25.62;53.38
33697;BME280;20031;43.416;23.232;2022-08-04T06:06:39;100046.19;;;25.70;52.85
33697;BME280;20031;43.416;23.232;2022-08-04T06:09:04;100036.88;;;25.77;52.94
33697;BME280;20031;43.416;23.232;2022-08-04T06:11:31;100031.81;;;25.80;53.09
33697;BME280;20031;43.416;23.232;2022-08-04T06:14:02;100040.91;;;25.79;52.98
33697;BME280;20031;43.416;23.232;2022-08-04T06:16:36;100040.34;;;25.72;52.84
33697;BME280;20031;43.416;23.232;2022-08-04T06:19:07;100040.47;;;25.61;53.07
33697;BME280;20031;43.416;23.232;2022-08-04T06:21:34;100032.16;;;25.53;53.81
33697;BME280;20031;43.416;23.232;2022-08-04T06:24:03;100034.16;;;25.67;53.38
33697;BME280;20031;43.416;23.232;2022-08-04T06:26:32;100032.59;;;25.71;52.23
33697;BME280;20031;43.416;23.232;2022-08-04T06:28:59;100029.78;;;25.92;52.55
33697;BME280;20031;43.416;23.232;2022-08-04T06:31:26;100032.06;;;26.20;51.37
33697;BME280;20031;43.416;23.232;2022-08-04T06:34:12;100024.78;;;26.57;50.96
33697;BME280;20031;43.416;23.232;2022-08-04T06:36:40;100027.63;;;27.16;49.03
33697;BME280;20031;43.416;23.232;2022-08-04T06:39:07;100026.59;;;27.72;48.19
33697;BME280;20031;43.416;23.232;2022-08-04T06:41:34;100031.38;;;28.09;46.93
33697;BME280;20031;43.416;23.232;2022-08-04T06:44:06;100026.81;;;28.25;46.06
33697;BME280;20031;43.416;23.232;2022-08-04T06:46:34;100023.53;;;28.32;45.74
33697;BME280;20031;43.416;23.232;2022-08-04T06:49:01;100022.94;;;28.45;45.34
33697;BME280;20031;43.416;23.232;2022-08-04T06:51:30;100031.16;;;28.74;44.42
33697;BME280;20031;43.416;23.232;2022-08-04T06:53:56;100032.78;;;28.65;44.38
33697;BME280;20031;43.416;23.232;2022-08-04T06:56:21;100028.78;;;28.62;45.30
33697;BME280;20031;43.416;23.232;2022-08-04T06:58:49;100033.34;;;28.62;45.42
33697;BME280;20031;43.416;23.232;2022-08-04T07:01:18;100034.97;;;28.63;45.71
33697;BME280;20031;43.416;23.232;2022-08-04T07:03:44;100037.78;;;28.91;45.56
33697;BME280;20031;43.416;23.232;2022-08-04T07:06:10;100036.50;;;29.22;44.76
33697;BME280;20031;43.416;23.232;2022-08-04T07:08:36;100048.00;;;29.32;44.39
33697;BME280;20031;43.416;23.232;2022-08-04T07:11:01;100044.06;;;29.53;43.29
33697;BME280;20031;43.416;23.232;2022-08-04T07:13:29;100044.25;;;29.66;42.84
33697;BME280;20031;43.416;23.232;2022-08-04T07:15:56;100041.69;;;29.85;42.72
33697;BME280;20031;43.416;23.232;2022-08-04T07:18:23;100034.38;;;30.13;42.60
33697;BME280;20031;43.416;23.232;2022-08-04T07:20:48;100042.06;;;30.48;41.01
33697;BME280;20031;43.416;23.232;2022-08-04T07:23:15;100035.06;;;30.70;40.64
33697;BME280;20031;43.416;23.232;2022-08-04T07:25:53;100031.09;;;31.04;39.39
33697;BME280;20031;43.416;23.232;2022-08-04T07:28:21;100024.19;;;30.98;39.70
33697;BME280;20031;43.416;23.232;2022-08-04T07:30:48;100015.28;;;30.61;40.17
33697;BME280;20031;43.416;23.232;2022-08-04T07:33:17;100017.06;;;30.47;39.60
33697;BME280;20031;43.416;23.232;2022-08-04T07:35:44;100017.84;;;30.25;39.46
33697;BME280;20031;43.416;23.232;2022-08-04T07:38:10;100018.28;;;30.08;40.85
33697;BME280;20031;43.416;23.232;2022-08-04T07:40:37;100017.56;;;30.03;40.71
33697;BME280;20031;43.416;23.232;2022-08-04T07:43:04;100008.94;;;30.06;41.01
33697;BME280;20031;43.416;23.232;2022-08-04T07:45:30;100023.78;;;29.98;40.73
33697;BME280;20031;43.416;23.232;2022-08-04T07:47:56;100023.81;;;30.22;41.05
33697;BME280;20031;43.416;23.232;2022-08-04T07:50:23;100024.38;;;30.19;40.75
33697;BME280;20031;43.416;23.232;2022-08-04T07:52:50;100023.81;;;30.22;41.23
33697;BME280;20031;43.416;23.232;2022-08-04T07:55:16;100018.81;;;30.39;40.16
33697;BME280;20031;43.416;23.232;2022-08-04T07:57:42;100024.38;;;30.42;40.61
33697;BME280;20031;43.416;23.232;2022-08-04T08:00:09;100022.56;;;30.38;40.19
33697;BME280;20031;43.416;23.232;2022-08-04T08:02:37;100021.50;;;30.34;39.20
33697;BME280;20031;43.416;23.232;2022-08-04T08:05:03;100021.28;;;30.07;40.11
33697;BME280;20031;43.416;23.232;2022-08-04T08:07:28;100026.41;;;30.27;40.00
33697;BME280;20031;43.416;23.232;2022-08-04T08:09:54;100019.69;;;30.71;39.70
33697;BME280;20031;43.416;23.232;2022-08-04T08:12:20;100025.56;;;30.96;38.39
33697;BME280;20031;43.416;23.232;2022-08-04T08:14:45;100017.06;;;31.07;37.45
33697;BME280;20031;43.416;23.232;2022-08-04T08:17:11;100022.56;;;31.34;37.67
33697;BME280;20031;43.416;23.232;2022-08-04T08:19:37;100018.59;;;31.63;37.33
33697;BME280;20031;43.416;23.232;2022-08-04T08:22:03;100029.03;;;31.51;36.53
33697;BME280;20031;43.416;23.232;2022-08-04T08:24:33;100024.00;;;31.63;37.31
33697;BME280;20031;43.416;23.232;2022-08-04T08:27:00;100031.13;;;31.86;35.75
33697;BME280;20031;43.416;23.232;2022-08-04T08:29:28;100029.41;;;31.77;36.13
33697;BME280;20031;43.416;23.232;2022-08-04T08:31:54;100025.69;;;31.73;36.32
33697;BME280;20031;43.416;23.232;2022-08-04T08:34:20;100031.25;;;31.63;36.61
33697;BME280;20031;43.416;23.232;2022-08-04T08:36:49;100031.53;;;31.30;37.28
33697;BME280;20031;43.416;23.232;2022-08-04T08:39:33;100030.81;;;31.06;37.97
33697;BME280;20031;43.416;23.232;2022-08-04T08:53:30;100022.34;;;30.76;38.72
33697;BME280;20031;43.416;23.232;2022-08-04T09:11:55;100015.91;;;32.22;36.63
33697;BME280;20031;43.416;23.232;2022-08-04T09:14:38;100007.88;;;32.44;35.91
33697;BME280;20031;43.416;23.232;2022-08-04T09:17:12;100009.44;;;32.50;35.97
33697;BME280;20031;43.416;23.232;2022-08-04T09:19:45;100005.13;;;32.97;35.81
33697;BME280;20031;43.416;23.232;2022-08-04T09:22:48;100005.56;;;33.34;34.82
33697;BME280;20031;43.416;23.232;2022-08-04T09:25:21;99999.69;;;33.76;34.83
33697;BME280;20031;43.416;23.232;2022-08-04T09:27:57;99994.25;;;33.98;32.24
33697;BME280;20031;43.416;23.232;2022-08-04T09:30:37;100001.84;;;33.65;32.45
33697;BME280;20031;43.416;23.232;2022-08-04T09:36:28;99989.75;;;33.93;32.55
33697;BME280;20031;43.416;23.232;2022-08-04T09:44:46;99978.22;;;34.10;31.21
33697;BME280;20031;43.416;23.232;2022-08-04T09:49:54;99976.16;;;34.15;31.11
33697;BME280;20031;43.416;23.232;2022-08-04T09:52:45;99978.72;;;34.20;30.88
33697;BME280;20031;43.416;23.232;2022-08-04T09:58:08;99977.41;;;34.73;29.93
33697;BME280;20031;43.416;23.232;2022-08-04T10:00:43;99975.34;;;34.70;30.52
33697;BME280;20031;43.416;23.232;2022-08-04T10:03:11;99969.50;;;34.93;29.86
33697;BME280;20031;43.416;23.232;2022-08-04T10:11:08;99971.56;;;34.96;29.91
33697;BME280;20031;43.416;23.232;2022-08-04T10:19:27;99965.50;;;35.24;29.32
33697;BME280;20031;43.416;23.232;2022-08-04T10:22:20;99971.22;;;35.31;29.23
33697;BME280;20031;43.416;23.232;2022-08-04T10:27:42;99966.91;;;35.47;28.48
33697;BME280;20031;43.416;23.232;2022-08-04T10:30:11;99961.66;;;35.17;28.05
33697;BME280;20031;43.416;23.232;2022-08-04T10:35:23;99958.47;;;35.40;28.25
33697;BME280;20031;43.416;23.232;2022-08-04T10:38:30;99958.44;;;35.57;28.80
33697;BME280;20031;43.416;23.232;2022-08-04T10:41:08;99949.91;;;35.84;28.70
33697;BME280;20031;43.416;23.232;2022-08-04T10:51:17;99937.53;;;36.32;28.12
33697;BME280;20031;43.416;23.232;2022-08-04T10:53:50;99947.09;;;36.38;27.88
33697;BME280;20031;43.416;23.232;2022-08-04T10:56:41;99933.63;;;36.41;27.37
33697;BME280;20031;43.416;23.232;2022-08-04T10:59:16;99939.13;;;36.33;27.30
33697;BME280;20031;43.416;23.232;2022-08-04T11:01:47;99933.63;;;36.41;27.04
33697;BME280;20031;43.416;23.232;2022-08-04T11:04:25;99940.22;;;36.61;27.31
33697;BME280;20031;43.416;23.232;2022-08-04T11:06:51;99922.19;;;36.56;27.52
33697;BME280;20031;43.416;23.232;2022-08-04T11:09:19;99929.91;;;36.75;27.51
33697;BME280;20031;43.416;23.232;2022-08-04T11:11:50;99919.16;;;36.78;27.46
33697;BME280;20031;43.416;23.232;2022-08-04T11:14:30;99926.56;;;36.89;27.17
33697;BME280;20031;43.416;23.232;2022-08-04T11:17:05;99922.47;;;36.63;27.21
33697;BME280;20031;43.416;23.232;2022-08-04T11:19:47;99923.84;;;36.69;27.39
33697;BME280;20031;43.416;23.232;2022-08-04T11:25:18;99916.38;;;36.66;27.25
33697;BME280;20031;43.416;23.232;2022-08-04T11:30:18;99916.66;;;37.05;27.26
33697;BME280;20031;43.416;23.232;2022-08-04T11:33:05;99911.75;;;37.19;26.06
33697;BME280;20031;43.416;23.232;2022-08-04T11:35:38;99912.38;;;37.04;26.77
33697;BME280;20031;43.416;23.232;2022-08-04T11:38:32;99909.50;;;37.01;25.98
33697;BME280;20031;43.416;23.232;2022-08-04T11:41:10;99913.19;;;36.84;26.11
33697;BME280;20031;43.416;23.232;2022-08-04T11:46:07;99899.47;;;37.13;25.62
33697;BME280;20031;43.416;23.232;2022-08-04T11:48:41;99897.28;;;37.39;25.24
33697;BME280;20031;43.416;23.232;2022-08-04T11:51:10;99898.56;;;37.41;25.03
33697;BME280;20031;43.416;23.232;2022-08-04T11:53:37;99885.63;;;37.38;25.08
33697;BME280;20031;43.416;23.232;2022-08-04T11:56:06;99892.78;;;37.55;25.29
33697;BME280;20031;43.416;23.232;2022-08-04T11:58:34;99884.34;;;37.68;24.96
33697;BME280;20031;43.416;23.232;2022-08-04T12:07:04;99881.72;;;38.19;24.02
33697;BME280;20031;43.416;23.232;2022-08-04T12:15:04;99880.34;;;37.54;23.95
33697;BME280;20031;43.416;23.232;2022-08-04T12:17:39;99881.69;;;37.60;23.88
33697;BME280;20031;43.416;23.232;2022-08-04T12:20:08;99870.50;;;37.85;23.86
33697;BME280;20031;43.416;23.232;2022-08-04T12:22:44;99872.19;;;37.78;23.92
33697;BME280;20031;43.416;23.232;2022-08-04T12:25:18;99882.25;;;37.53;23.89
33697;BME280;20031;43.416;23.232;2022-08-04T12:27:55;99881.03;;;37.63;23.72
33697;BME280;20031;43.416;23.232;2022-08-04T12:30:22;99874.91;;;37.89;23.96
33697;BME280;20031;43.416;23.232;2022-08-04T12:33:04;99856.56;;;37.86;23.14
33697;BME280;20031;43.416;23.232;2022-08-04T12:35:44;99857.56;;;37.70;24.09
33697;BME280;20031;43.416;23.232;2022-08-04T12:38:12;99860.38;;;38.21;23.85
33697;BME280;20031;43.416;23.232;2022-08-04T12:40:49;99854.25;;;38.63;23.56
33697;BME280;20031;43.416;23.232;2022-08-04T12:43:23;99859.47;;;38.95;23.13
33697;BME280;20031;43.416;23.232;2022-08-04T12:45:57;99852.44;;;38.94;22.72
33697;BME280;20031;43.416;23.232;2022-08-04T12:48:26;99850.16;;;39.12;22.73
33697;BME280;20031;43.416;23.232;2022-08-04T12:50:53;99846.19;;;39.25;22.62
33697;BME280;20031;43.416;23.232;2022-08-04T12:53:45;99846.91;;;39.22;22.45
33697;BME280;20031;43.416;23.232;2022-08-04T12:56:13;99840.16;;;39.31;21.80
33697;BME280;20031;43.416;23.232;2022-08-04T12:58:44;99832.91;;;39.23;21.95
33697;BME280;20031;43.416;23.232;2022-08-04T13:03:52;99830.19;;;38.81;22.56
33697;BME280;20031;43.416;23.232;2022-08-04T13:06:24;99836.78;;;38.80;22.36
33697;BME280;20031;43.416;23.232;2022-08-04T13:08:49;99833.28;;;38.79;22.21
33697;BME280;20031;43.416;23.232;2022-08-04T13:11:16;99821.97;;;38.38;22.32
33697;BME280;20031;43.416;23.232;2022-08-04T13:13:44;99825.13;;;38.40;22.90
33697;BME280;20031;43.416;23.232;2022-08-04T13:16:10;99820.59;;;38.71;22.13
33697;BME280;20031;43.416;23.232;2022-08-04T13:18:38;99833.34;;;38.83;22.50
33697;BME280;20031;43.416;23.232;2022-08-04T13:21:24;99822.31;;;38.91;21.87
33697;BME280;20031;43.416;23.232;2022-08-04T13:23:57;99816.72;;;38.99;22.35
33697;BME280;20031;43.416;23.232;2022-08-04T13:26:26;99825.19;;;39.10;21.97
33697;BME280;20031;43.416;23.232;2022-08-04T13:28:53;99819.56;;;39.18;21.32
33697;BME280;20031;43.416;23.232;2022-08-04T13:31:22;99813.88;;;38.02;22.49
33697;BME280;20031;43.416;23.232;2022-08-04T13:33:52;99808.22;;;38.07;22.30
33697;BME280;20031;43.416;23.232;2022-08-04T13:36:23;99817.06;;;38.16;22.19
33697;BME280;20031;43.416;23.232;2022-08-04T13:38:54;99802.44;;;38.09;21.91
33697;BME280;20031;43.416;23.232;2022-08-04T13:41:22;99804.34;;;38.47;22.33
33697;BME280;20031;43.416;23.232;2022-08-04T13:43:53;99803.22;;;38.91;21.74
33697;BME280;20031;43.416;23.232;2022-08-04T13:46:22;99799.66;;;39.02;21.46
33697;BME280;20031;43.416;23.232;2022-08-04T13:48:49;99804.06;;;39.07;21.31
33697;BME280;20031;43.416;23.232;2022-08-04T13:51:17;99798.59;;;38.91;21.21
33697;BME280;20031;43.416;23.232;2022-08-04T13:53:43;99798.16;;;39.05;20.79
33697;BME280;20031;43.416;23.232;2022-08-04T13:56:11;99797.69;;;38.87;21.21
33697;BME280;20031;43.416;23.232;2022-08-04T13:58:44;99789.09;;;39.32;20.76
33697;BME280;20031;43.416;23.232;2022-08-04T14:01:22;99799.47;;;39.72;20.29
33697;BME280;20031;43.416;23.232;2022-08-04T14:09:15;99786.53;;;40.79;19.48
33697;BME280;20031;43.416;23.232;2022-08-04T14:11:52;99784.69;;;40.45;20.24
33697;BME280;20031;43.416;23.232;2022-08-04T14:14:28;99784.81;;;39.95;20.41
33697;BME280;20031;43.416;23.232;2022-08-04T14:27:27;99782.13;;;41.38;18.69
33697;BME280;20031;43.416;23.232;2022-08-04T14:29:53;99773.97;;;41.67;19.00
33697;BME280;20031;43.416;23.232;2022-08-04T14:32:18;99778.09;;;41.80;18.68
33697;BME280;20031;43.416;23.232;2022-08-04T14:34:44;99775.81;;;41.34;18.57
33697;BME280;20031;43.416;23.232;2022-08-04T14:37:15;99783.09;;;41.26;18.53
33697;BME280;20031;43.416;23.232;2022-08-04T14:39:43;99769.47;;;41.52;18.59
33697;BME280;20031;43.416;23.232;2022-08-04T14:42:11;99769.78;;;41.47;18.08
33697;BME280;20031;43.416;23.232;2022-08-04T14:44:57;99773.41;;;42.09;18.56
33697;BME280;20031;43.416;23.232;2022-08-04T14:50:07;99772.56;;;43.04;17.28
33697;BME280;20031;43.416;23.232;2022-08-04T14:52:33;99775.50;;;43.28;16.79
33697;BME280;20031;43.416;23.232;2022-08-04T14:55:15;99780.78;;;43.50;16.69
33697;BME280;20031;43.416;23.232;2022-08-04T14:57:41;99766.72;;;43.59;16.41
33697;BME280;20031;43.416;23.232;2022-08-04T15:00:07;99775.41;;;43.67;16.72
33697;BME280;20031;43.416;23.232;2022-08-04T15:02:33;99772.47;;;44.04;16.72
33697;BME280;20031;43.416;23.232;2022-08-04T15:05:01;99761.22;;;44.36;16.42
33697;BME280;20031;43.416;23.232;2022-08-04T15:07:28;99760.53;;;44.60;16.26
33697;BME280;20031;43.416;23.232;2022-08-04T15:09:54;99758.19;;;44.59;16.34
33697;BME280;20031;43.416;23.232;2022-08-04T15:12:21;99760.13;;;44.48;16.28
33697;BME280;20031;43.416;23.232;2022-08-04T15:14:46;99763.97;;;44.26;16.30
33697;BME280;20031;43.416;23.232;2022-08-04T15:17:12;99766.75;;;44.40;15.75
33697;BME280;20031;43.416;23.232;2022-08-04T15:19:38;99758.47;;;44.22;15.40
33697;BME280;20031;43.416;23.232;2022-08-04T15:22:04;99760.31;;;44.05;15.19
33697;BME280;20031;43.416;23.232;2022-08-04T15:24:29;99758.66;;;43.90;15.75
33697;BME280;20031;43.416;23.232;2022-08-04T15:26:56;99751.72;;;44.10;15.29
33697;BME280;20031;43.416;23.232;2022-08-04T15:29:41;99751.28;;;43.97;15.50
33697;BME280;20031;43.416;23.232;2022-08-04T15:32:13;99744.72;;;43.55;15.55
33697;BME280;20031;43.416;23.232;2022-08-04T15:34:51;99754.13;;;43.54;16.25
33697;BME280;20031;43.416;23.232;2022-08-04T15:37:46;99747.31;;;43.95;16.07
33697;BME280;20031;43.416;23.232;2022-08-04T15:40:47;99742.84;;;44.51;15.61
33697;BME280;20031;43.416;23.232;2022-08-04T15:43:30;99744.91;;;45.02;15.45
33697;BME280;20031;43.416;23.232;2022-08-04T15:46:03;99745.66;;;44.96;15.57
33697;BME280;20031;43.416;23.232;2022-08-04T15:48:30;99753.91;;;44.89;15.49
33697;BME280;20031;43.416;23.232;2022-08-04T15:53:28;99752.66;;;44.52;15.51
33697;BME280;20031;43.416;23.232;2022-08-04T15:55:54;99747.84;;;44.18;15.79
33697;BME280;20031;43.416;23.232;2022-08-04T15:58:21;99740.28;;;44.01;15.34
33697;BME280;20031;43.416;23.232;2022-08-04T16:05:56;99744.44;;;44.55;15.38
33697;BME280;20031;43.416;23.232;2022-08-04T16:08:21;99746.03;;;44.70;15.42
33697;BME280;20031;43.416;23.232;2022-08-04T16:10:48;99737.03;;;45.08;15.49
33697;BME280;20031;43.416;23.232;2022-08-04T16:13:19;99742.50;;;44.76;15.90
33697;BME280;20031;43.416;23.232;2022-08-04T16:15:52;99742.44;;;44.52;15.53
33697;BME280;20031;43.416;23.232;2022-08-04T16:18:21;99745.00;;;44.00;15.91
33697;BME280;20031;43.416;23.232;2022-08-04T16:20:47;99741.44;;;44.00;15.83
33697;BME280;20031;43.416;23.232;2022-08-04T16:26:01;99741.22;;;44.32;15.54
33697;BME280;20031;43.416;23.232;2022-08-04T16:28:39;99744.31;;;44.20;15.52
33697;BME280;20031;43.416;23.232;2022-08-04T16:31:08;99739.22;;;44.22;15.29
33697;BME280;20031;43.416;23.232;2022-08-04T16:33:34;99735.72;;;44.39;15.63
33697;BME280;20031;43.416;23.232;2022-08-04T16:36:01;99737.28;;;44.33;15.58
33697;BME280;20031;43.416;23.232;2022-08-04T16:38:26;99743.41;;;43.96;15.98
33697;BME280;20031;43.416;23.232;2022-08-04T16:40:54;99740.88;;;43.63;15.65
33697;BME280;20031;43.416;23.232;2022-08-04T16:43:22;99747.19;;;43.17;16.00
33697;BME280;20031;43.416;23.232;2022-08-04T16:45:54;99748.97;;;42.99;16.55
33697;BME280;20031;43.416;23.232;2022-08-04T16:48:24;99748.91;;;43.35;16.12
33697;BME280;20031;43.416;23.232;2022-08-04T16:50:52;99743.72;;;43.23;16.48
33697;BME280;20031;43.416;23.232;2022-08-04T16:53:20;99744.69;;;41.97;16.49
33697;BME280;20031;43.416;23.232;2022-08-04T16:55:51;99750.91;;;40.53;17.55
33697;BME280;20031;43.416;23.232;2022-08-04T16:58:23;99752.19;;;39.34;18.42
33697;BME280;20031;43.416;23.232;2022-08-04T17:00:49;99748.19;;;38.16;19.43
33697;BME280;20031;43.416;23.232;2022-08-04T17:03:15;99754.06;;;37.31;20.71
33697;BME280;20031;43.416;23.232;2022-08-04T17:05:40;99750.88;;;36.61;21.24
33697;BME280;20031;43.416;23.232;2022-08-04T17:08:07;99759.56;;;36.02;22.00
33697;BME280;20031;43.416;23.232;2022-08-04T17:10:46;99760.63;;;35.61;21.89
33697;BME280;20031;43.416;23.232;2022-08-04T17:13:37;99769.75;;;35.19;22.89
33697;BME280;20031;43.416;23.232;2022-08-04T17:16:06;99761.59;;;34.82;23.20
33697;BME280;20031;43.416;23.232;2022-08-04T17:18:40;99765.00;;;34.54;23.89
33697;BME280;20031;43.416;23.232;2022-08-04T17:21:09;99765.00;;;34.20;23.94
33697;BME280;20031;43.416;23.232;2022-08-04T17:23:38;99776.09;;;33.93;23.98